TimeCST,TemperatureF,Dew PointF,Humidity,Sea Level PressureIn,VisibilityMPH,Wind Direction,Wind SpeedMPH,Gust SpeedMPH,PrecipitationIn,Events,Conditions,WindDirDegrees,DateUTC
12:55 AM,24.1,21.0,88,30.14,10.0,NNE,5.8,-,N/A,,Clear,20,2012-11-26 06:55:00
1:55 AM,28.9,24.1,82,30.15,10.0,NNE,9.2,-,N/A,,Clear,20,2012-11-26 07:55:00
2:55 AM,28.9,24.1,82,30.17,10.0,NNE,10.4,-,N/A,,Clear,20,2012-11-26 08:55:00
3:55 AM,30.0,25.0,82,30.17,10.0,NNE,11.5,-,N/A,,Clear,30,2012-11-26 09:55:00
4:55 AM,30.0,24.1,79,30.20,10.0,NNE,11.5,-,N/A,,Clear,20,2012-11-26 10:55:00
5:55 AM,30.0,24.1,79,30.21,10.0,NNE,15.0,-,N/A,,Clear,30,2012-11-26 11:55:00
6:55 AM,30.0,23.0,75,30.24,10.0,NE,13.8,-,N/A,,Clear,40,2012-11-26 12:55:00
7:55 AM,30.9,21.9,69,30.27,10.0,NNE,13.8,-,N/A,,Clear,30,2012-11-26 13:55:00
8:55 AM,33.1,21.9,64,30.29,10.0,NE,13.8,-,N/A,,Clear,40,2012-11-26 14:55:00
9:55 AM,35.1,21.9,59,30.31,10.0,NNE,15.0,-,N/A,,Partly Cloudy,30,2012-11-26 15:55:00
10:55 AM,33.1,21.9,64,30.35,10.0,NNE,15.0,-,N/A,,Overcast,20,2012-11-26 16:55:00
11:55 AM,33.1,23.0,66,30.36,9.0,North,12.7,-,N/A,,Overcast,360,2012-11-26 17:55:00
12:55 PM,33.1,19.9,59,30.37,10.0,North,15.0,-,N/A,,Overcast,10,2012-11-26 18:55:00
1:55 PM,32.0,19.0,59,30.37,10.0,North,13.8,-,N/A,,Overcast,350,2012-11-26 19:55:00
2:55 PM,30.0,19.9,66,30.38,7.0,North,12.7,-,0.00,Snow,Light Snow,350,2012-11-26 20:55:00
3:55 PM,30.0,18.0,61,30.39,10.0,NNW,11.5,-,N/A,,Overcast,340,2012-11-26 21:55:00
4:55 PM,30.9,18.0,59,30.39,10.0,North,9.2,-,N/A,,Overcast,350,2012-11-26 22:55:00
5:55 PM,28.9,18.0,64,30.41,10.0,North,8.1,-,N/A,,Scattered Clouds,360,2012-11-26 23:55:00
6:55 PM,25.0,16.0,69,30.43,10.0,North,8.1,-,N/A,,Clear,350,2012-11-27 00:55:00
7:55 PM,23.0,15.1,72,30.45,10.0,NNW,5.8,-,N/A,,Clear,340,2012-11-27 01:55:00
8:55 PM,21.0,12.9,71,30.46,10.0,North,6.9,-,N/A,,Clear,350,2012-11-27 02:55:00
9:55 PM,19.9,10.9,68,30.47,10.0,North,6.9,-,N/A,,Clear,360,2012-11-27 03:55:00
10:55 PM,18.0,10.0,71,30.48,10.0,North,4.6,-,N/A,,Clear,350,2012-11-27 04:55:00
11:55 PM,17.1,9.0,71,30.49,10.0,North,5.8,-,N/A,,Clear,350,2012-11-27 05:55:00